createdAt,value
2023-02-15T00:02:02.041Z,103031.78
2023-02-15T00:04:47.020Z,103043.63
2023-02-15T00:07:16.741Z,103048.44
2023-02-15T00:09:43.889Z,103043.06
2023-02-15T00:12:11.261Z,103033.47
2023-02-15T00:14:38.154Z,103027.28
2023-02-15T00:17:05.174Z,103029.66
2023-02-15T00:19:32.074Z,103028.53
2023-02-15T00:21:58.933Z,103025.72
2023-02-15T00:24:26.014Z,103016.03
2023-02-15T00:26:52.885Z,103020.91
2023-02-15T00:29:20.790Z,103023.28
2023-02-15T00:31:47.984Z,103027.41
2023-02-15T00:34:24.824Z,103024.63
2023-02-15T00:36:51.819Z,103027.75
2023-02-15T00:39:19.376Z,103025.06
2023-02-15T00:41:47.523Z,103024.94
2023-02-15T00:44:15.066Z,103028.19
2023-02-15T00:46:42.104Z,103025.53
2023-02-15T00:49:10.654Z,103020.25
2023-02-15T00:51:38.657Z,103030.41
2023-02-15T00:54:05.799Z,103017.91
2023-02-15T00:56:32.673Z,103019.81
2023-02-15T00:58:59.638Z,103015.34
2023-02-15T01:01:26.867Z,103018.69
2023-02-15T01:03:54.020Z,103016.00
2023-02-15T01:06:21.197Z,103008.94
2023-02-15T01:08:48.565Z,103009.72
2023-02-15T01:11:22.981Z,103007.94
2023-02-15T01:13:54.400Z,103004.38
2023-02-15T01:16:22.184Z,103000.78
2023-02-15T01:18:49.512Z,102998.22
2023-02-15T01:21:22.293Z,102991.16
2023-02-15T01:23:49.459Z,102989.38
2023-02-15T01:26:17.219Z,102986.56
2023-02-15T01:28:45.855Z,102984.00
2023-02-15T01:31:17.958Z,102985.56
2023-02-15T01:33:47.474Z,102969.69
2023-02-15T01:36:15.291Z,102976.84
2023-02-15T01:38:42.633Z,102976.84
2023-02-15T01:41:23.838Z,102975.03
2023-02-15T01:44:01.016Z,102979.19
2023-02-15T01:46:40.050Z,102979.19
2023-02-15T01:49:17.994Z,102971.22
2023-02-15T01:51:47.442Z,102973.81
2023-02-15T01:54:27.097Z,102968.66
2023-02-15T01:56:56.227Z,102966.88
2023-02-15T01:59:25.578Z,102963.31
2023-02-15T02:01:59.225Z,102963.16
2023-02-15T02:04:36.777Z,102954.47
2023-02-15T02:07:05.436Z,102952.66
2023-02-15T02:09:33.279Z,102957.03
2023-02-15T02:12:00.865Z,102939.81
2023-02-15T02:14:27.922Z,102937.91
2023-02-15T02:17:29.174Z,102927.28
2023-02-15T02:20:31.818Z,102937.34
2023-02-15T02:23:29.079Z,102926.50
2023-02-15T02:26:17.529Z,102928.53
2023-02-15T02:29:28.590Z,102919.81
2023-02-15T02:32:29.720Z,102905.03
2023-02-15T02:35:20.242Z,102897.22
2023-02-15T02:37:59.490Z,102898.00
2023-02-15T02:40:55.321Z,102899.69
2023-02-15T02:43:36.665Z,102896.88
2023-02-15T02:46:08.158Z,102884.94
2023-02-15T02:48:35.860Z,102895.09
2023-02-15T02:51:02.803Z,102889.81
2023-02-15T02:53:32.383Z,102893.06
2023-02-15T02:56:22.522Z,102894.75
2023-02-15T02:59:11.010Z,102902.22
2023-02-15T03:02:16.069Z,102896.97
2023-02-15T03:04:49.169Z,102895.97
2023-02-15T03:07:23.674Z,102886.59
2023-02-15T03:09:53.667Z,102883.13
2023-02-15T03:12:30.920Z,102877.06
2023-02-15T03:15:16.438Z,102869.38
2023-02-15T03:17:47.093Z,102869.28
2023-02-15T03:20:30.623Z,102864.91
2023-02-15T03:23:07.668Z,102863.13
2023-02-15T03:25:41.325Z,102855.94
2023-02-15T03:28:13.553Z,102869.94
2023-02-15T03:30:43.516Z,102868.13
2023-02-15T03:33:12.155Z,102859.53
2023-02-15T03:35:54.268Z,102853.50
2023-02-15T03:38:35.797Z,102861.22
2023-02-15T03:41:12.970Z,102850.94
2023-02-15T03:43:46.343Z,102858.53
2023-02-15T03:46:24.574Z,102862.91
2023-02-15T03:49:08.506Z,102856.97
2023-02-15T03:51:39.575Z,102849.13
2023-02-15T03:54:37.962Z,102848.38
2023-02-15T03:57:31.614Z,102844.91
2023-02-15T04:00:25.044Z,102844.91
2023-02-15T04:03:16.395Z,102837.88
2023-02-15T04:05:45.117Z,102839.66
2023-02-15T04:08:13.516Z,102837.09
2023-02-15T04:10:58.967Z,102821.53
2023-02-15T04:13:33.766Z,102819.78
2023-02-15T04:16:07.790Z,102811.72
2023-02-15T04:19:02.970Z,102817.66
2023-02-15T04:21:49.842Z,102812.72
2023-02-15T04:24:35.961Z,102812.72
2023-02-15T04:27:04.388Z,102814.41
2023-02-15T04:29:31.867Z,102812.59
2023-02-15T04:32:01.869Z,102803.25
2023-02-15T04:34:28.850Z,102805.03
2023-02-15T04:36:55.743Z,102804.91
2023-02-15T04:39:22.627Z,102803.13
2023-02-15T04:41:49.493Z,102795.41
2023-02-15T04:44:16.649Z,102782.56
2023-02-15T04:46:43.551Z,102790.28
2023-02-15T04:49:10.711Z,102774.88
2023-02-15T04:51:37.722Z,102774.75
2023-02-15T04:54:04.737Z,102774.66
2023-02-15T04:56:32.196Z,102770.97
2023-02-15T04:58:59.092Z,102770.41
2023-02-15T05:01:26.050Z,102767.28
2023-02-15T05:03:53.058Z,102769.28
2023-02-15T05:06:19.985Z,102765.50
2023-02-15T05:08:46.917Z,102768.16
2023-02-15T05:11:13.814Z,102766.28
2023-02-15T05:13:41.439Z,102766.81
2023-02-15T05:16:08.608Z,102773.53
2023-02-15T05:18:35.506Z,102767.22
2023-02-15T05:21:02.417Z,102768.66
2023-02-15T05:23:29.288Z,102765.75
2023-02-15T05:26:14.512Z,102762.03
2023-02-15T05:28:41.380Z,102761.66
2023-02-15T05:31:35.232Z,102762.19
2023-02-15T05:34:02.345Z,102766.09
2023-02-15T05:36:29.843Z,102763.97
2023-02-15T05:38:57.126Z,102767.06
2023-02-15T05:41:23.993Z,102755.97
2023-02-15T05:43:50.876Z,102753.34
2023-02-15T05:46:17.800Z,102748.53
2023-02-15T05:48:44.730Z,102751.38
2023-02-15T05:51:14.948Z,102745.53
2023-02-15T05:53:42.035Z,102738.06
2023-02-15T05:56:11.506Z,102738.25
2023-02-15T05:58:41.443Z,102742.91
2023-02-15T06:01:18.134Z,102739.75
2023-02-15T06:03:46.565Z,102730.72
2023-02-15T06:06:13.693Z,102734.50
2023-02-15T06:08:40.645Z,102727.88
2023-02-15T06:11:07.863Z,102736.84
2023-02-15T06:13:38.407Z,102738.03
2023-02-15T06:16:07.230Z,102734.97
2023-02-15T06:18:34.568Z,102739.41
2023-02-15T06:21:01.438Z,102728.44
2023-02-15T06:23:28.311Z,102731.13
2023-02-15T06:25:55.209Z,102729.59
2023-02-15T06:28:22.094Z,102727.22
2023-02-15T06:30:48.983Z,102728.22
2023-02-15T06:33:15.904Z,102727.44
2023-02-15T06:35:42.803Z,102736.84
2023-02-15T06:38:09.755Z,102729.81
2023-02-15T06:40:36.639Z,102733.69
2023-02-15T06:43:03.526Z,102730.31
2023-02-15T06:45:30.413Z,102729.41
2023-02-15T06:47:57.303Z,102735.88
2023-02-15T06:50:24.207Z,102731.59
2023-02-15T06:52:56.580Z,102741.19
2023-02-15T06:55:23.423Z,102730.31
2023-02-15T06:57:51.125Z,102732.06
2023-02-15T07:00:19.250Z,102713.25
2023-02-15T07:02:46.197Z,102717.59
2023-02-15T07:05:13.169Z,102715.03
2023-02-15T07:07:40.163Z,102709.00
2023-02-15T07:10:07.621Z,102713.75
2023-02-15T07:12:43.501Z,102710.47
2023-02-15T07:15:16.156Z,102713.84
2023-02-15T07:17:44.143Z,102719.00
2023-02-15T07:20:21.108Z,102719.00
2023-02-15T07:22:48.623Z,102717.41
2023-02-15T07:25:15.813Z,102706.41
2023-02-15T07:27:42.895Z,102701.44
2023-02-15T07:30:13.751Z,102700.75
2023-02-15T07:33:01.142Z,102704.50
2023-02-15T07:35:29.193Z,102694.38
2023-02-15T07:37:56.125Z,102695.47
2023-02-15T07:40:24.434Z,102677.13
2023-02-15T07:42:55.806Z,102675.63
2023-02-15T07:45:23.344Z,102684.81
2023-02-15T07:47:50.228Z,102683.34
2023-02-15T07:50:17.190Z,102674.69
2023-02-15T07:52:44.058Z,102673.50
2023-02-15T07:55:13.664Z,102678.03
2023-02-15T07:57:48.302Z,102674.03
2023-02-15T08:00:18.129Z,102682.16
2023-02-15T08:03:13.272Z,102663.72
2023-02-15T08:05:42.298Z,102675.59
2023-02-15T08:08:30.245Z,102674.19
2023-02-15T08:11:31.899Z,102664.91
2023-02-15T08:14:04.694Z,102654.53
2023-02-15T08:16:46.057Z,102655.56
2023-02-15T08:19:22.723Z,102657.56
2023-02-15T08:21:53.164Z,102655.31
2023-02-15T08:24:22.847Z,102657.31
2023-02-15T08:26:50.936Z,102658.34
2023-02-15T08:29:23.374Z,102653.41
2023-02-15T08:31:55.635Z,102647.97
2023-02-15T08:34:22.610Z,102648.31
2023-02-15T08:36:49.522Z,102644.41
2023-02-15T08:39:16.707Z,102636.94
2023-02-15T08:41:46.809Z,102633.63
2023-02-15T08:44:16.138Z,102620.16
2023-02-15T08:46:45.695Z,102615.97
2023-02-15T08:49:18.918Z,102602.88
2023-02-15T08:51:46.494Z,102607.69
2023-02-15T08:54:16.909Z,102604.38
2023-02-15T08:56:45.338Z,102613.19
2023-02-15T08:59:21.492Z,102610.97
2023-02-15T09:01:51.054Z,102608.63
2023-02-15T09:04:18.584Z,102600.94
2023-02-15T09:06:49.171Z,102609.06
2023-02-15T09:09:17.942Z,102605.81
2023-02-15T09:11:47.607Z,102609.97
2023-02-15T09:14:25.428Z,102604.16
2023-02-15T09:16:54.177Z,102591.69
2023-02-15T09:19:23.398Z,102595.53
2023-02-15T09:21:50.287Z,102602.41
2023-02-15T09:24:18.262Z,102598.09
2023-02-15T09:26:48.594Z,102587.75
2023-02-15T09:29:16.709Z,102592.13
2023-02-15T09:31:47.178Z,102603.53
2023-02-15T09:34:19.127Z,102589.06
2023-02-15T09:36:46.554Z,102596.19
2023-02-15T09:39:16.294Z,102587.84
2023-02-15T09:41:52.902Z,102589.84
2023-02-15T09:44:53.342Z,102590.06
2023-02-15T09:47:50.294Z,102591.22
2023-02-15T09:51:13.118Z,102587.09
2023-02-15T09:54:22.414Z,102561.81
2023-02-15T09:56:58.210Z,102577.88
2023-02-15T09:59:42.386Z,102581.97
2023-02-15T10:02:47.311Z,102587.31
2023-02-15T10:05:40.482Z,102579.00
2023-02-15T10:08:18.991Z,102581.88
2023-02-15T10:11:33.267Z,102586.47
2023-02-15T10:14:18.804Z,102586.81
2023-02-15T10:17:26.868Z,102583.72
2023-02-15T10:20:15.717Z,102579.56
2023-02-15T10:23:13.318Z,102558.47
2023-02-15T10:26:32.522Z,102583.44
2023-02-15T10:29:17.120Z,102580.44
2023-02-15T10:32:13.004Z,102576.28
2023-02-15T10:34:47.573Z,102582.94
2023-02-15T10:37:31.253Z,102575.72
2023-02-15T10:40:23.157Z,102569.25
2023-02-15T10:43:05.286Z,102571.31
2023-02-15T10:46:16.782Z,102567.34
2023-02-15T10:49:08.255Z,102563.16
2023-02-15T10:52:09.569Z,102559.03
2023-02-15T10:55:04.664Z,102553.16
2023-02-15T10:57:54.014Z,102558.41
2023-02-15T11:00:43.108Z,102535.00
2023-02-15T11:03:35.652Z,102553.72
2023-02-15T11:06:14.890Z,102550.56
2023-02-15T11:08:46.460Z,102553.28
2023-02-15T11:11:43.352Z,102544.88
2023-02-15T11:14:21.671Z,102542.63
2023-02-15T11:16:56.230Z,102530.63
2023-02-15T11:19:55.223Z,102532.84
2023-02-15T11:22:22.894Z,102523.47
2023-02-15T11:24:50.407Z,102525.41
2023-02-15T11:27:25.515Z,102520.28
2023-02-15T11:30:14.592Z,102508.28
2023-02-15T11:32:45.742Z,102510.91
2023-02-15T11:35:15.098Z,102493.72
2023-02-15T11:37:55.057Z,102496.38
2023-02-15T11:40:35.270Z,102502.38
2023-02-15T11:43:13.992Z,102499.22
2023-02-15T11:45:47.324Z,102496.72
2023-02-15T11:48:16.207Z,102489.81
2023-02-15T11:50:44.588Z,102492.53
2023-02-15T11:53:25.785Z,102481.47
2023-02-15T11:55:52.974Z,102479.00
2023-02-15T11:58:29.440Z,102470.75
2023-02-15T12:01:40.864Z,102466.72
2023-02-15T12:04:22.821Z,102462.72
2023-02-15T12:07:26.504Z,102452.53
2023-02-15T12:10:26.475Z,102455.25
2023-02-15T12:13:17.815Z,102459.75
2023-02-15T12:15:51.760Z,102454.59
2023-02-15T12:18:46.609Z,102451.34
2023-02-15T12:21:34.104Z,102449.78
2023-02-15T12:24:22.883Z,102447.38
2023-02-15T12:26:59.635Z,102442.22
2023-02-15T12:29:32.152Z,102439.63
2023-02-15T12:32:00.097Z,102439.91
2023-02-15T12:34:33.211Z,102440.97
2023-02-15T12:37:22.766Z,102430.72
2023-02-15T12:39:59.208Z,102423.03
2023-02-15T12:42:30.056Z,102420.56
2023-02-15T12:45:31.741Z,102413.63
2023-02-15T12:48:18.057Z,102418.13
2023-02-15T12:50:55.415Z,102416.47
2023-02-15T12:53:34.644Z,102410.53
2023-02-15T12:56:05.097Z,102407.25
2023-02-15T12:58:35.097Z,102404.75
2023-02-15T13:01:10.444Z,102404.88
2023-02-15T13:03:51.927Z,102394.59
2023-02-15T13:06:19.581Z,102396.47
2023-02-15T13:08:52.905Z,102393.16
2023-02-15T13:11:32.718Z,102373.31
2023-02-15T13:14:16.187Z,102369.94
2023-02-15T13:16:46.099Z,102363.00
2023-02-15T13:19:38.186Z,102356.97
2023-02-15T13:22:14.082Z,102359.56
2023-02-15T13:24:49.571Z,102352.69
2023-02-15T13:27:23.230Z,102359.72
2023-02-15T13:29:54.740Z,102364.16
2023-02-15T13:32:38.020Z,102355.44
2023-02-15T13:35:08.094Z,102345.19
2023-02-15T13:38:07.404Z,102340.84
2023-02-15T13:40:39.176Z,102334.88
2023-02-15T13:43:43.753Z,102327.06
2023-02-15T13:46:28.849Z,102324.47
2023-02-15T13:49:19.865Z,102334.88
2023-02-15T13:52:22.943Z,102328.81
2023-02-15T13:55:28.244Z,102327.06
2023-02-15T13:58:35.566Z,102328.81
2023-02-15T14:01:35.487Z,102328.78
2023-02-15T14:04:46.605Z,102320.03
2023-02-15T14:07:54.652Z,102325.16
2023-02-15T14:10:45.839Z,102322.56
2023-02-15T14:13:48.259Z,102325.19
2023-02-15T14:16:34.978Z,102318.31
2023-02-15T14:19:37.696Z,102317.44
2023-02-15T14:22:36.348Z,102318.25
2023-02-15T14:25:29.551Z,102316.56
2023-02-15T14:28:42.174Z,102313.06
2023-02-15T14:31:13.126Z,102311.28
2023-02-15T14:33:48.614Z,102307.84
2023-02-15T14:36:20.546Z,102308.69
2023-02-15T14:39:42.610Z,102304.28
2023-02-15T14:42:15.698Z,102297.31
2023-02-15T14:45:02.631Z,102299.84
2023-02-15T14:47:38.270Z,102299.84
2023-02-15T14:50:34.816Z,102308.41
2023-02-15T14:53:32.033Z,102310.06
2023-02-15T14:56:21.014Z,102314.28
2023-02-15T14:58:50.821Z,102317.69
2023-02-15T15:01:34.931Z,102306.31
2023-02-15T15:04:09.697Z,102311.50
2023-02-15T15:06:43.492Z,102316.59
2023-02-15T15:09:21.663Z,102312.13
2023-02-15T15:11:51.880Z,102307.69
2023-02-15T15:14:33.997Z,102318.00
2023-02-15T15:17:04.749Z,102316.09
2023-02-15T15:19:54.834Z,102310.72
2023-02-15T15:22:28.092Z,102308.81
2023-02-15T15:25:01.135Z,102308.59
2023-02-15T15:27:54.377Z,102302.22
2023-02-15T15:30:24.368Z,102308.03
2023-02-15T15:32:57.784Z,102307.84
2023-02-15T15:35:47.684Z,102305.84
2023-02-15T15:39:03.683Z,102307.22
2023-02-15T15:41:46.851Z,102301.66
2023-02-15T15:45:04.674Z,102306.44
2023-02-15T15:47:43.743Z,102310.50
2023-02-15T15:50:21.370Z,102304.13
2023-02-15T15:52:58.212Z,102297.81
2023-02-15T15:55:28.927Z,102301.91
2023-02-15T15:58:06.096Z,102305.13
2023-02-15T16:00:43.413Z,102303.81
2023-02-15T16:03:25.687Z,102303.72
2023-02-15T16:05:56.487Z,102293.19
2023-02-15T16:08:40.829Z,102290.25
2023-02-15T16:11:30.308Z,102301.13
2023-02-15T16:13:57.398Z,102291.31
2023-02-15T16:16:29.689Z,102285.00
2023-02-15T16:19:00.695Z,102286.47
2023-02-15T16:21:35.737Z,102297.44
2023-02-15T16:24:54.673Z,102292.81
2023-02-15T16:27:45.202Z,102291.66
2023-02-15T16:30:23.258Z,102285.47
2023-02-15T16:32:53.901Z,102289.69
2023-02-15T16:35:22.162Z,102287.09
2023-02-15T16:37:49.116Z,102293.91
2023-02-15T16:40:24.694Z,102294.75
2023-02-15T16:42:54.868Z,102300.72
2023-02-15T16:45:25.426Z,102303.19
2023-02-15T16:47:57.398Z,102311.03
2023-02-15T16:50:31.782Z,102304.94
2023-02-15T16:52:58.937Z,102313.63
2023-02-15T16:55:29.564Z,102306.63
2023-02-15T16:58:02.558Z,102311.84
2023-02-15T17:00:35.076Z,102310.13
2023-02-15T17:03:23.169Z,102298.69
2023-02-15T17:05:57.678Z,102297.94
2023-02-15T17:08:34.866Z,102300.53
2023-02-15T17:11:21.327Z,102289.41
2023-02-15T17:14:09.703Z,102288.53
2023-02-15T17:16:50.192Z,102279.03
2023-02-15T17:19:27.408Z,102284.97
2023-02-15T17:22:04.850Z,102291.94
2023-02-15T17:24:31.565Z,102298.97
2023-02-15T17:27:02.721Z,102299.94
2023-02-15T17:29:41.300Z,102300.72
2023-02-15T17:32:24.952Z,102310.97
2023-02-15T17:35:09.545Z,102310.84
2023-02-15T17:37:39.390Z,102308.13
2023-02-15T17:40:35.415Z,102293.78
2023-02-15T17:43:02.410Z,102300.16
2023-02-15T17:45:41.485Z,102302.66
2023-02-15T17:48:21.255Z,102299.09
2023-02-15T17:50:48.602Z,102299.06
2023-02-15T17:53:18.843Z,102296.50
2023-02-15T17:55:46.461Z,102298.22
2023-02-15T17:58:16.923Z,102299.94
2023-02-15T18:01:09.986Z,102285.19
2023-02-15T18:04:08.619Z,102287.72
2023-02-15T18:06:59.061Z,102287.72
2023-02-15T18:09:44.954Z,102287.66
2023-02-15T18:12:27.882Z,102291.00
2023-02-15T18:14:56.832Z,102287.53
2023-02-15T18:17:35.257Z,102279.66
2023-02-15T18:20:18.370Z,102272.47
2023-02-15T18:22:46.502Z,102285.78
2023-02-15T18:25:15.691Z,102287.44
2023-02-15T18:27:43.131Z,102275.41
2023-02-15T18:30:20.314Z,102281.47
2023-02-15T18:32:51.390Z,102273.63
2023-02-15T18:35:22.132Z,102272.88
2023-02-15T18:37:50.469Z,102274.56
2023-02-15T18:40:20.468Z,102273.75
2023-02-15T18:42:48.934Z,102267.69
2023-02-15T18:45:28.290Z,102267.63
2023-02-15T18:47:55.261Z,102263.22
2023-02-15T18:50:23.843Z,102263.13
2023-02-15T18:52:51.553Z,102260.53
2023-02-15T18:55:25.024Z,102247.50
2023-02-15T18:57:54.372Z,102241.44
2023-02-15T19:00:30.395Z,102246.75
2023-02-15T19:02:57.916Z,102234.63
2023-02-15T19:05:29.507Z,102232.94
2023-02-15T19:07:58.943Z,102228.63
2023-02-15T19:10:28.761Z,102227.81
2023-02-15T19:12:56.285Z,102228.63
2023-02-15T19:15:27.100Z,102227.63
2023-02-15T19:17:54.777Z,102225.03
2023-02-15T19:20:30.046Z,102220.41
2023-02-15T19:22:58.410Z,102224.91
2023-02-15T19:25:29.206Z,102216.25
2023-02-15T19:27:56.535Z,102224.81
2023-02-15T19:30:31.988Z,102222.19
2023-02-15T19:32:59.854Z,102219.53
2023-02-15T19:35:32.139Z,102224.50
2023-02-15T19:38:04.049Z,102217.47
2023-02-15T19:40:34.652Z,102213.88
2023-02-15T19:43:02.751Z,102212.09
2023-02-15T19:45:31.639Z,102209.44
2023-02-15T19:48:01.841Z,102210.25
2023-02-15T19:50:33.380Z,102206.88
2023-02-15T19:53:01.990Z,102202.47
2023-02-15T19:55:34.926Z,102190.25
2023-02-15T19:58:03.088Z,102188.41
2023-02-15T20:00:34.193Z,102187.50
2023-02-15T20:03:01.373Z,102188.31
2023-02-15T20:05:30.603Z,102178.81
2023-02-15T20:07:58.366Z,102186.50
2023-02-15T20:10:29.544Z,102177.56
2023-02-15T20:12:57.016Z,102170.66
2023-02-15T20:15:28.158Z,102171.38
2023-02-15T20:17:57.210Z,102166.94
2023-02-15T20:20:31.013Z,102162.53
2023-02-15T20:22:57.949Z,102170.19
2023-02-15T20:25:29.206Z,102164.16
2023-02-15T20:27:59.190Z,102163.19
2023-02-15T20:30:30.633Z,102164.03
2023-02-15T20:32:57.774Z,102167.41
2023-02-15T20:35:28.549Z,102173.41
2023-02-15T20:37:59.583Z,102166.53
2023-02-15T20:40:30.935Z,102170.75
2023-02-15T20:42:57.891Z,102164.63
2023-02-15T20:45:28.704Z,102176.66
2023-02-15T20:47:56.179Z,102161.66
2023-02-15T20:50:27.256Z,102176.59
2023-02-15T20:52:56.432Z,102173.94
2023-02-15T20:55:27.317Z,102173.94
2023-02-15T20:57:54.255Z,102165.09
2023-02-15T21:00:24.923Z,102179.88
2023-02-15T21:02:56.548Z,102182.38
2023-02-15T21:05:26.815Z,102184.78
2023-02-15T21:07:54.566Z,102201.91
2023-02-15T21:10:29.360Z,102201.69
2023-02-15T21:12:59.874Z,102197.34
2023-02-15T21:15:39.824Z,102190.38
2023-02-15T21:18:15.367Z,102187.81
2023-02-15T21:20:48.276Z,102189.38
2023-02-15T21:23:18.792Z,102190.84
2023-02-15T21:25:46.299Z,102180.34
2023-02-15T21:28:27.514Z,102183.47
2023-02-15T21:30:59.617Z,102186.69
2023-02-15T21:33:27.264Z,102177.84
2023-02-15T21:35:56.874Z,102178.59
2023-02-15T21:38:29.444Z,102167.13
2023-02-15T21:41:16.272Z,102167.28
2023-02-15T21:44:18.462Z,102154.34
2023-02-15T21:47:04.118Z,102149.25
2023-02-15T21:49:31.011Z,102150.94
2023-02-15T21:52:13.083Z,102144.97
2023-02-15T21:54:45.048Z,102136.03
2023-02-15T21:57:16.936Z,102127.41
2023-02-15T21:59:44.554Z,102129.34
2023-02-15T22:02:28.553Z,102122.31
2023-02-15T22:04:56.533Z,102122.22
2023-02-15T22:07:23.437Z,102121.34
2023-02-15T22:09:50.299Z,102120.47
2023-02-15T22:12:19.195Z,102106.63
2023-02-15T22:14:53.312Z,102117.91
2023-02-15T22:17:24.957Z,102114.34
2023-02-15T22:19:52.659Z,102111.75
2023-02-15T22:22:19.591Z,102113.47
2023-02-15T22:24:46.831Z,102116.78
2023-02-15T22:27:22.159Z,102114.03
2023-02-15T22:29:50.171Z,102106.84
2023-02-15T22:32:23.532Z,102124.19
2023-02-15T22:34:51.411Z,102126.59
2023-02-15T22:37:18.362Z,102130.81
2023-02-15T22:39:45.251Z,102131.53
2023-02-15T22:42:26.186Z,102130.66
2023-02-15T22:44:55.617Z,102128.91
2023-02-15T22:47:26.041Z,102122.78
2023-02-15T22:49:54.452Z,102125.34
2023-02-15T22:52:21.653Z,102119.91
2023-02-15T22:54:48.526Z,102120.94
2023-02-15T22:57:24.849Z,102120.84
2023-02-15T22:59:51.735Z,102124.84
2023-02-15T23:02:18.646Z,102119.91
2023-02-15T23:04:45.557Z,102132.75
2023-02-15T23:07:18.993Z,102133.72
2023-02-15T23:09:46.582Z,102127.72
2023-02-15T23:12:27.335Z,102116.22
2023-02-15T23:14:54.790Z,102115.53
2023-02-15T23:17:22.088Z,102119.75
2023-02-15T23:19:49.022Z,102111.84
2023-02-15T23:22:18.166Z,102110.88
2023-02-15T23:24:51.931Z,102115.16
2023-02-15T23:27:38.131Z,102108.97
2023-02-15T23:30:10.561Z,102116.00
2023-02-15T23:32:37.480Z,102107.28
2023-02-15T23:35:15.482Z,102108.91
2023-02-15T23:37:42.368Z,102120.84
2023-02-15T23:40:37.125Z,102126.75
2023-02-15T23:43:04.284Z,102111.72
2023-02-15T23:45:38.233Z,102126.50
2023-02-15T23:48:29.914Z,102124.75
2023-02-15T23:50:57.746Z,102114.44
2023-02-15T23:53:24.654Z,102116.94
2023-02-15T23:55:51.580Z,102122.09
2023-02-15T23:58:23.425Z,102116.78
